Time;durP1;ratioP1;P1;durP2;ratioP2;P2;SDS_P1;SDS_P2;PMS_P1;PMS_P2;Temp;Humidity;BMP_temperature;BMP_pressure;BME280_temperature;BME280_humidity;BME280_pressure;Samples;Min_cycle;Max_cycle;Signal;HPM_P1;HPM_P2
2023/07/31 00:00:30;;;;;;;0.85;0.60;;;24.70;50.90;;;;;;4986054;28;20062;-65
2023/07/31 00:02:56;;;;;;;0.50;0.43;;;24.70;51.00;;;;;;4987065;28;20091;-62
2023/07/31 00:05:22;;;;;;;0.68;0.57;;;24.70;51.00;;;;;;4987498;28;20385;-64
2023/07/31 00:07:48;;;;;;;0.70;0.50;;;24.70;51.00;;;;;;4985199;28;20034;-65
2023/07/31 00:10:13;;;;;;;0.40;0.40;;;24.70;51.10;;;;;;4986861;28;20370;-63
2023/07/31 00:12:42;;;;;;;0.80;0.50;;;24.70;51.10;;;;;;4987663;28;20042;-62
2023/07/31 00:15:08;;;;;;;1.13;0.70;;;24.70;51.20;;;;;;4986250;28;20405;-64
2023/07/31 00:17:34;;;;;;;0.60;0.50;;;24.70;51.20;;;;;;4982991;28;20049;-65
2023/07/31 00:20:00;;;;;;;0.50;0.50;;;24.70;51.20;;;;;;4986285;28;20031;-62
2023/07/31 00:22:26;;;;;;;0.60;0.40;;;24.70;51.30;;;;;;4986535;28;20361;-65
2023/07/31 00:24:52;;;;;;;0.55;0.40;;;24.70;51.30;;;;;;4987353;28;20188;-64
2023/07/31 00:27:18;;;;;;;0.40;0.40;;;24.70;51.40;;;;;;4987494;28;20136;-63
2023/07/31 00:29:44;;;;;;;0.80;0.57;;;24.70;51.40;;;;;;4986822;28;20106;-62
2023/07/31 00:32:10;;;;;;;1.90;0.50;;;24.70;51.40;;;;;;4985968;28;20096;-63
2023/07/31 00:34:37;;;;;;;0.98;0.52;;;24.70;51.40;;;;;;4982455;28;20311;-63
2023/07/31 00:37:03;;;;;;;0.60;0.38;;;24.70;51.50;;;;;;4988144;28;20353;-64
2023/07/31 00:39:30;;;;;;;0.63;0.50;;;24.70;51.50;;;;;;4986858;28;20046;-63
2023/07/31 00:41:56;;;;;;;0.50;0.45;;;24.60;51.50;;;;;;4986823;28;20100;-63
2023/07/31 00:44:22;;;;;;;0.50;0.40;;;24.60;51.60;;;;;;4983940;28;20042;-65
2023/07/31 00:46:48;;;;;;;0.40;0.40;;;24.60;51.60;;;;;;4981234;28;20071;-63
2023/07/31 00:49:16;;;;;;;0.90;0.57;;;24.60;51.70;;;;;;4981410;28;20062;-63
2023/07/31 00:51:41;;;;;;;1.00;0.40;;;24.70;51.80;;;;;;4985186;28;20037;-63
2023/07/31 00:54:08;;;;;;;0.77;0.40;;;24.60;51.80;;;;;;4985907;28;20572;-65
2023/07/31 00:56:34;;;;;;;0.88;0.57;;;24.60;51.80;;;;;;4987007;28;20090;-64
2023/07/31 00:59:00;;;;;;;0.77;0.50;;;24.60;51.90;;;;;;4998575;28;20034;-63
2023/07/31 01:01:27;;;;;;;0.98;0.65;;;24.60;52.00;;;;;;4998332;28;20116;-65
2023/07/31 01:03:53;;;;;;;0.98;0.65;;;24.60;52.10;;;;;;4986434;28;20445;-64
2023/07/31 01:06:33;;;;;;;1.88;1.02;;;24.60;52.10;;;;;;4984115;28;20033;-64
2023/07/31 01:09:02;;;;;;;2.63;0.90;;;24.60;52.20;;;;;;4981356;28;20413;-63
2023/07/31 01:11:35;;;;;;;1.92;0.88;;;24.60;52.30;;;;;;4986235;28;20390;-65
2023/07/31 01:14:02;;;;;;;1.33;1.00;;;24.60;52.40;;;;;;4981348;28;20035;-63
2023/07/31 01:16:28;;;;;;;2.70;1.30;;;24.60;52.40;;;;;;4965041;28;20025;-64
2023/07/31 01:18:54;;;;;;;2.58;1.38;;;24.60;52.50;;;;;;4982403;28;20137;-62
2023/07/31 01:21:55;;;;;;;2.78;1.70;;;24.60;52.70;;;;;;4969508;28;20124;-63
2023/07/31 01:24:39;;;;;;;4.32;1.42;;;24.60;52.70;;;;;;4983333;28;20387;-63
2023/07/31 01:27:19;;;;;;;3.13;1.73;;;24.60;52.80;;;;;;4985799;28;20109;-64
2023/07/31 01:30:14;;;;;;;3.05;1.70;;;24.60;52.90;;;;;;4985991;28;20424;-62
2023/07/31 01:32:46;;;;;;;4.55;2.13;;;24.60;53.00;;;;;;4981741;28;20461;-62
2023/07/31 01:35:12;;;;;;;4.43;1.98;;;24.50;53.00;;;;;;4985045;28;20125;-62
2023/07/31 01:37:37;;;;;;;3.08;1.90;;;24.60;53.10;;;;;;4984234;28;20361;-64
2023/07/31 01:40:05;;;;;;;4.53;2.15;;;24.60;53.20;;;;;;4990077;28;20125;-63
2023/07/31 01:42:31;;;;;;;5.72;2.33;;;24.60;53.20;;;;;;4988480;28;20044;-64
2023/07/31 01:44:56;;;;;;;2.95;1.77;;;24.50;53.20;;;;;;4991205;28;20027;-62
2023/07/31 01:47:23;;;;;;;4.68;2.00;;;24.60;53.30;;;;;;4987148;28;20320;-63
2023/07/31 01:49:49;;;;;;;3.90;2.08;;;24.50;53.20;;;;;;4988373;28;20080;-63
2023/07/31 01:52:15;;;;;;;4.47;2.40;;;24.50;53.30;;;;;;4989588;28;20401;-63
2023/07/31 01:54:41;;;;;;;3.70;1.73;;;24.50;53.30;;;;;;4987775;28;20041;-63
2023/07/31 01:57:07;;;;;;;3.72;1.95;;;24.50;53.40;;;;;;4989176;28;20461;-66
2023/07/31 01:59:33;;;;;;;5.53;2.45;;;24.50;53.40;;;;;;4986147;28;20058;-62
2023/07/31 02:01:59;;;;;;;3.38;2.15;;;24.50;53.40;;;;;;4989131;28;20081;-62
2023/07/31 02:04:25;;;;;;;4.18;2.33;;;24.50;53.40;;;;;;4989033;28;20102;-64
2023/07/31 02:06:52;;;;;;;3.90;2.38;;;24.60;53.50;;;;;;4987984;28;20104;-63
2023/07/31 02:09:18;;;;;;;3.33;2.03;;;24.50;53.40;;;;;;5002896;28;20127;-63
2023/07/31 02:11:44;;;;;;;3.95;2.10;;;24.50;53.40;;;;;;4988609;28;20465;-63
2023/07/31 02:14:10;;;;;;;4.38;2.10;;;24.50;53.40;;;;;;4989584;28;20432;-63
2023/07/31 02:16:35;;;;;;;5.18;2.40;;;24.50;53.50;;;;;;4987982;28;21784;-64
2023/07/31 02:19:01;;;;;;;2.75;2.00;;;24.50;53.50;;;;;;4988400;28;20038;-64
2023/07/31 02:21:27;;;;;;;4.30;2.25;;;24.50;53.50;;;;;;4986608;28;20038;-62
2023/07/31 02:23:53;;;;;;;3.30;2.25;;;24.50;53.50;;;;;;5001861;28;20027;-64
2023/07/31 02:26:19;;;;;;;3.15;1.80;;;24.50;53.50;;;;;;4985075;28;20034;-63
2023/07/31 02:28:45;;;;;;;4.32;2.28;;;24.50;53.50;;;;;;4987263;28;20046;-65
2023/07/31 02:31:11;;;;;;;4.78;2.35;;;24.50;53.50;;;;;;4988421;28;20022;-65
2023/07/31 02:33:37;;;;;;;4.32;2.50;;;24.50;53.60;;;;;;4994760;28;20128;-64
2023/07/31 02:36:03;;;;;;;4.28;2.10;;;24.50;53.60;;;;;;5004308;28;20098;-62
2023/07/31 02:38:29;;;;;;;4.35;2.20;;;24.50;54.20;;;;;;4988276;28;20034;-63
2023/07/31 02:40:55;;;;;;;3.53;2.13;;;24.50;53.60;;;;;;4989475;28;20049;-65
2023/07/31 02:43:21;;;;;;;4.55;2.20;;;24.50;53.60;;;;;;4988526;28;20053;-64
2023/07/31 02:45:52;;;;;;;3.90;2.03;;;24.50;53.70;;;;;;4988106;28;20026;-65
2023/07/31 02:48:18;;;;;;;3.58;2.22;;;24.50;53.70;;;;;;4985599;28;20038;-63
2023/07/31 02:50:45;;;;;;;3.90;2.13;;;24.50;53.70;;;;;;4988832;28;20410;-63
2023/07/31 02:53:11;;;;;;;4.90;2.13;;;24.50;53.80;;;;;;4987988;28;20342;-63
2023/07/31 02:55:37;;;;;;;3.28;2.05;;;24.40;53.80;;;;;;4987788;28;20034;-61
2023/07/31 02:58:03;;;;;;;5.60;2.80;;;24.40;53.80;;;;;;4989798;28;21596;-62
2023/07/31 03:00:29;;;;;;;5.45;2.47;;;24.40;53.80;;;;;;4987541;28;20018;-64
2023/07/31 03:02:55;;;;;;;4.88;2.25;;;24.40;53.80;;;;;;4988824;28;20037;-62
2023/07/31 03:05:20;;;;;;;3.42;2.10;;;24.40;53.90;;;;;;4988806;28;20084;-62
2023/07/31 03:07:47;;;;;;;4.30;2.05;;;24.50;53.90;;;;;;4989847;28;20030;-62
2023/07/31 03:10:13;;;;;;;4.85;2.53;;;24.40;53.90;;;;;;4986489;28;20073;-63
2023/07/31 03:12:39;;;;;;;4.75;2.42;;;24.40;53.90;;;;;;4989324;28;20080;-64
2023/07/31 03:15:06;;;;;;;5.40;2.50;;;24.40;53.90;;;;;;4988522;28;20334;-62
2023/07/31 03:17:31;;;;;;;4.90;2.50;;;24.40;53.90;;;;;;4985446;28;20026;-63
2023/07/31 03:19:57;;;;;;;3.63;2.20;;;24.40;53.90;;;;;;4989119;28;20022;-66
2023/07/31 03:22:23;;;;;;;4.15;2.45;;;24.40;53.90;;;;;;4987396;28;20030;-63
2023/07/31 03:24:50;;;;;;;4.30;2.38;;;24.40;53.90;;;;;;4988489;28;20085;-65
2023/07/31 03:27:16;;;;;;;4.18;2.40;;;24.40;53.90;;;;;;5002497;28;20461;-65
2023/07/31 03:29:43;;;;;;;4.70;2.50;;;24.40;53.90;;;;;;4986658;28;20030;-63
2023/07/31 03:32:09;;;;;;;4.63;2.72;;;24.40;53.90;;;;;;4987266;28;20463;-63
2023/07/31 03:34:34;;;;;;;4.53;3.40;;;24.40;53.90;;;;;;4988526;28;20034;-61
2023/07/31 03:37:00;;;;;;;4.38;2.30;;;24.40;53.80;;;;;;4987825;28;20022;-65
2023/07/31 03:39:27;;;;;;;5.10;2.40;;;24.40;53.80;;;;;;4987016;28;20026;-62
2023/07/31 03:41:53;;;;;;;4.22;2.45;;;24.40;53.80;;;;;;4983549;28;20372;-62
2023/07/31 03:44:19;;;;;;;4.20;2.60;;;24.40;53.80;;;;;;4981556;28;20068;-64
2023/07/31 03:46:45;;;;;;;4.03;2.50;;;24.40;53.80;;;;;;4988308;28;20121;-63
2023/07/31 03:49:11;;;;;;;4.00;2.30;;;24.40;53.70;;;;;;4986140;28;20412;-64
2023/07/31 03:51:37;;;;;;;3.50;2.38;;;24.40;53.70;;;;;;4988292;28;20081;-62
2023/07/31 03:54:03;;;;;;;3.97;2.42;;;24.40;53.70;;;;;;4986974;28;20045;-64
2023/07/31 03:56:29;;;;;;;4.93;2.65;;;24.40;53.70;;;;;;4986370;28;20058;-63
2023/07/31 03:58:55;;;;;;;5.07;2.60;;;24.40;53.60;;;;;;4987406;28;20401;-64
2023/07/31 04:01:21;;;;;;;4.43;2.63;;;24.40;53.60;;;;;;4986701;28;20515;-64
2023/07/31 04:03:46;;;;;;;4.57;2.67;;;24.30;53.60;;;;;;4986048;28;20041;-62
2023/07/31 04:06:12;;;;;;;4.85;2.50;;;24.30;53.50;;;;;;4986673;28;20030;-66
2023/07/31 04:08:38;;;;;;;4.50;2.45;;;24.30;53.50;;;;;;4984198;28;20433;-62
2023/07/31 04:11:04;;;;;;;3.40;2.25;;;24.30;53.50;;;;;;4987299;28;20054;-63
2023/07/31 04:13:30;;;;;;;4.57;2.70;;;24.30;53.50;;;;;;4987242;28;20022;-65
2023/07/31 04:15:56;;;;;;;3.95;2.35;;;24.30;53.40;;;;;;4981524;28;20029;-64
2023/07/31 04:18:25;;;;;;;6.10;3.15;;;24.30;53.40;;;;;;4982305;28;20065;-65
2023/07/31 04:20:51;;;;;;;4.85;2.75;;;24.30;53.40;;;;;;4986722;28;20034;-65
2023/07/31 04:23:17;;;;;;;4.50;2.40;;;24.30;53.40;;;;;;4986697;28;20034;-65
2023/07/31 04:25:43;;;;;;;4.65;2.47;;;24.30;53.30;;;;;;4985489;28;20031;-64
2023/07/31 04:28:09;;;;;;;5.10;3.10;;;24.30;53.30;;;;;;4985707;28;20208;-62
2023/07/31 04:30:36;;;;;;;5.22;2.80;;;24.30;53.30;;;;;;4986672;28;20041;-66
2023/07/31 04:33:02;;;;;;;3.90;2.15;;;24.30;53.30;;;;;;4984869;28;20052;-64
2023/07/31 04:35:27;;;;;;;4.10;2.65;;;24.30;53.30;;;;;;4986630;28;20026;-67
2023/07/31 04:37:53;;;;;;;6.72;2.95;;;24.30;53.30;;;;;;4985300;28;20125;-64
2023/07/31 04:40:20;;;;;;;3.63;2.30;;;24.30;53.20;;;;;;4987960;28;20119;-65
2023/07/31 04:42:46;;;;;;;4.38;2.60;;;24.30;53.20;;;;;;4984524;28;20034;-67
2023/07/31 04:45:12;;;;;;;4.30;2.50;;;24.30;53.20;;;;;;4986718;28;20375;-66
2023/07/31 04:47:38;;;;;;;5.20;2.70;;;24.30;53.20;;;;;;4983508;28;20041;-66
2023/07/31 04:50:04;;;;;;;3.75;2.53;;;24.30;53.20;;;;;;4985409;28;20601;-65
2023/07/31 04:52:30;;;;;;;4.93;2.65;;;24.30;53.20;;;;;;4985009;28;20037;-65
2023/07/31 04:54:56;;;;;;;3.67;2.53;;;24.30;53.20;;;;;;4987740;28;20440;-66
2023/07/31 04:57:22;;;;;;;4.30;2.83;;;24.30;53.20;;;;;;4985080;28;20044;-65
2023/07/31 04:59:48;;;;;;;5.10;3.20;;;24.30;53.20;;;;;;4986797;28;20048;-64
2023/07/31 05:02:14;;;;;;;5.15;2.50;;;24.30;53.20;;;;;;4985234;28;20022;-65
2023/07/31 05:04:39;;;;;;;4.90;2.40;;;24.30;53.10;;;;;;4985605;28;20038;-64
2023/07/31 05:07:05;;;;;;;4.47;2.85;;;24.30;53.20;;;;;;4982178;28;20030;-63
2023/07/31 05:09:31;;;;;;;4.57;2.85;;;24.30;53.10;;;;;;4986058;28;20134;-63
2023/07/31 05:11:57;;;;;;;4.45;2.80;;;24.30;53.10;;;;;;4982962;28;20050;-65
2023/07/31 05:14:23;;;;;;;4.90;2.50;;;24.30;53.10;;;;;;4983046;28;20109;-66
2023/07/31 05:16:49;;;;;;;4.60;2.40;;;24.30;53.10;;;;;;4985649;28;20042;-66
2023/07/31 05:19:15;;;;;;;5.50;2.97;;;24.30;53.10;;;;;;4983276;28;20034;-65
2023/07/31 05:21:41;;;;;;;5.72;2.50;;;24.30;53.10;;;;;;4984268;28;20038;-65
2023/07/31 05:24:07;;;;;;;3.75;2.42;;;24.30;53.10;;;;;;4982462;28;20458;-66
2023/07/31 05:26:33;;;;;;;4.78;2.60;;;24.30;53.10;;;;;;4984899;28;20050;-64
2023/07/31 05:28:58;;;;;;;6.47;2.67;;;24.30;53.10;;;;;;4985617;28;20101;-64
2023/07/31 05:31:24;;;;;;;4.95;2.45;;;24.30;53.10;;;;;;4983309;28;20088;-66
2023/07/31 05:33:51;;;;;;;4.13;2.25;;;24.30;53.10;;;;;;4993142;28;20022;-66
2023/07/31 05:36:17;;;;;;;3.50;2.22;;;24.30;53.10;;;;;;4981808;28;20034;-66
2023/07/31 05:38:46;;;;;;;5.15;2.70;;;24.30;53.10;;;;;;4985803;28;20124;-64
2023/07/31 05:41:12;;;;;;;4.00;2.25;;;24.30;53.10;;;;;;4984945;28;20046;-65
2023/07/31 05:43:38;;;;;;;4.13;2.55;;;24.30;53.20;;;;;;4984824;28;20049;-64
2023/07/31 05:46:06;;;;;;;4.68;2.40;;;24.30;53.20;;;;;;4985605;28;20113;-66
2023/07/31 05:48:34;;;;;;;3.67;2.40;;;24.30;53.90;;;;;;4982837;28;20136;-65
2023/07/31 05:51:00;;;;;;;4.90;2.47;;;24.30;53.20;;;;;;4981881;28;20118;-66
2023/07/31 05:53:26;;;;;;;4.10;2.40;;;24.30;53.30;;;;;;4984485;28;20101;-66
2023/07/31 05:55:52;;;;;;;3.28;1.92;;;24.30;53.30;;;;;;4985061;28;20450;-63
2023/07/31 05:58:17;;;;;;;5.22;2.72;;;24.30;53.40;;;;;;4982945;28;20054;-62
2023/07/31 06:00:43;;;;;;;3.83;2.17;;;24.30;53.40;;;;;;4968052;28;20057;-66
2023/07/31 06:03:09;;;;;;;3.50;2.28;;;24.20;53.40;;;;;;4980872;28;20030;-65
2023/07/31 06:05:35;;;;;;;3.97;2.60;;;24.30;53.50;;;;;;4984397;28;20114;-63
2023/07/31 06:08:01;;;;;;;4.95;2.85;;;24.30;53.50;;;;;;4983400;28;20022;-65
2023/07/31 06:10:28;;;;;;;3.60;2.35;;;24.20;53.50;;;;;;4985895;28;20030;-66
2023/07/31 06:12:54;;;;;;;3.45;2.20;;;24.30;53.60;;;;;;4985152;28;20053;-68
2023/07/31 06:15:20;;;;;;;3.75;2.00;;;24.20;53.60;;;;;;4984042;28;20038;-64
2023/07/31 06:17:46;;;;;;;3.40;2.00;;;24.20;53.70;;;;;;4984363;28;20041;-63
2023/07/31 06:20:12;;;;;;;3.00;2.42;;;24.20;53.80;;;;;;4986609;28;20326;-64
2023/07/31 06:22:38;;;;;;;4.72;2.35;;;24.20;53.80;;;;;;4984467;28;20329;-65
2023/07/31 06:25:04;;;;;;;3.70;2.13;;;24.20;53.90;;;;;;4985593;28;20023;-64
2023/07/31 06:27:30;;;;;;;3.75;2.05;;;24.20;53.90;;;;;;4987414;28;20104;-65
2023/07/31 06:29:56;;;;;;;2.95;2.08;;;24.20;54.00;;;;;;4987735;28;20050;-63
2023/07/31 06:32:22;;;;;;;3.40;1.98;;;24.20;54.00;;;;;;4991317;28;20033;-65
2023/07/31 06:34:48;;;;;;;4.03;2.00;;;24.20;54.10;;;;;;4992188;28;20026;-63
2023/07/31 06:37:14;;;;;;;4.00;1.92;;;24.20;54.20;;;;;;4991588;28;20349;-62
2023/07/31 06:39:40;;;;;;;3.78;2.08;;;24.20;54.20;;;;;;4989971;28;20081;-65
2023/07/31 06:42:06;;;;;;;3.17;2.00;;;24.20;54.30;;;;;;4990714;28;20022;-64
2023/07/31 06:44:33;;;;;;;3.50;2.03;;;24.20;54.30;;;;;;4989383;28;20022;-65
2023/07/31 06:46:59;;;;;;;3.55;1.85;;;24.20;54.30;;;;;;4999003;28;20053;-63
2023/07/31 06:49:24;;;;;;;4.05;1.98;;;24.30;54.50;;;;;;4984070;28;20128;-66
2023/07/31 06:51:50;;;;;;;2.75;2.08;;;24.20;54.50;;;;;;4989461;28;20030;-65
2023/07/31 06:54:18;;;;;;;2.65;1.65;;;24.20;54.50;;;;;;4992315;28;20379;-65
2023/07/31 06:56:44;;;;;;;2.53;1.50;;;24.20;54.60;;;;;;4993497;28;20033;-67
2023/07/31 06:59:10;;;;;;;3.67;1.98;;;24.20;54.60;;;;;;4986632;28;20050;-62
2023/07/31 07:01:36;;;;;;;3.40;1.80;;;24.30;54.70;;;;;;4987464;28;20491;-62
2023/07/31 07:04:02;;;;;;;3.20;1.50;;;24.20;54.70;;;;;;4987721;28;20036;-62
2023/07/31 07:06:27;;;;;;;3.30;1.83;;;24.30;54.80;;;;;;4985387;28;20057;-65
2023/07/31 07:08:53;;;;;;;3.42;1.90;;;24.20;54.80;;;;;;4988089;28;20048;-63
2023/07/31 07:11:19;;;;;;;2.58;1.52;;;24.20;54.80;;;;;;4988304;28;20050;-64
2023/07/31 07:13:45;;;;;;;2.60;1.55;;;24.30;54.90;;;;;;4987611;28;20440;-63
2023/07/31 07:16:11;;;;;;;3.08;1.67;;;24.30;55.00;;;;;;4985635;28;20053;-62
2023/07/31 07:18:37;;;;;;;2.85;1.60;;;24.20;55.00;;;;;;4986719;28;20457;-62
2023/07/31 07:21:03;;;;;;;1.58;1.33;;;24.20;55.00;;;;;;4990516;28;20026;-60
2023/07/31 07:23:29;;;;;;;2.53;1.45;;;24.20;55.20;;;;;;4989440;28;20034;-62
2023/07/31 07:25:55;;;;;;;2.15;1.20;;;24.20;55.30;;;;;;4990360;28;20090;-62
2023/07/31 07:28:21;;;;;;;2.47;1.48;;;24.20;55.30;;;;;;4989492;28;20208;-64
2023/07/31 07:30:54;;;;;;;1.35;1.10;;;24.30;55.50;;;;;;4989244;28;20034;-64
2023/07/31 07:33:20;;;;;;;1.70;1.23;;;24.30;55.60;;;;;;4985653;28;20022;-65
2023/07/31 07:35:46;;;;;;;1.63;1.23;;;24.30;55.60;;;;;;4983707;28;20045;-65
2023/07/31 07:38:14;;;;;;;2.45;1.20;;;24.30;55.70;;;;;;4988115;28;21717;-65
2023/07/31 07:40:40;;;;;;;2.78;1.23;;;24.30;55.70;;;;;;4986380;28;20027;-63
2023/07/31 07:43:06;;;;;;;1.17;0.95;;;24.30;55.70;;;;;;4981553;28;20151;-64
2023/07/31 07:45:32;;;;;;;1.50;1.20;;;24.30;55.70;;;;;;4984386;28;20100;-65
2023/07/31 07:47:59;;;;;;;2.28;0.90;;;24.30;55.80;;;;;;4987511;28;20050;-64
2023/07/31 07:50:25;;;;;;;2.13;1.45;;;24.30;55.80;;;;;;4989481;28;20136;-64
2023/07/31 07:52:51;;;;;;;0.90;0.73;;;24.30;55.80;;;;;;4989166;28;20090;-65
2023/07/31 07:55:17;;;;;;;1.10;0.80;;;24.30;55.80;;;;;;4987841;28;20129;-57
2023/07/31 07:57:44;;;;;;;1.92;1.00;;;24.30;55.90;;;;;;4988941;28;20034;-63
2023/07/31 08:00:12;;;;;;;1.92;1.00;;;24.30;55.90;;;;;;4991007;28;20193;-65
2023/07/31 08:02:42;;;;;;;1.50;0.85;;;24.30;55.90;;;;;;4989713;28;20066;-64
2023/07/31 08:05:08;;;;;;;0.93;0.80;;;24.30;56.00;;;;;;4992920;28;20037;-65
2023/07/31 08:07:34;;;;;;;1.17;0.80;;;24.30;56.00;;;;;;4986985;28;20030;-64
2023/07/31 08:10:00;;;;;;;1.15;0.70;;;24.30;56.00;;;;;;4985040;28;20049;-65
2023/07/31 08:12:26;;;;;;;1.00;0.85;;;24.30;56.00;;;;;;4986644;28;20141;-60
2023/07/31 08:14:52;;;;;;;1.70;0.90;;;24.30;56.10;;;;;;4987389;28;20088;-61
2023/07/31 08:17:18;;;;;;;0.88;0.60;;;24.30;56.10;;;;;;4988678;28;20038;-61
2023/07/31 08:19:44;;;;;;;0.90;0.80;;;24.30;56.20;;;;;;4993225;28;20176;-62
2023/07/31 08:22:11;;;;;;;0.93;0.80;;;24.30;56.30;;;;;;4980858;28;20078;-61
2023/07/31 08:24:37;;;;;;;1.38;0.60;;;24.30;56.30;;;;;;4990643;28;20109;-62
2023/07/31 08:27:05;;;;;;;1.20;0.73;;;24.40;56.30;;;;;;4991994;28;20510;-66
2023/07/31 08:29:31;;;;;;;1.10;0.70;;;24.30;56.30;;;;;;5012660;28;20038;-65
2023/07/31 08:31:57;;;;;;;1.35;0.70;;;24.30;56.40;;;;;;5000546;28;20049;-64
2023/07/31 08:34:23;;;;;;;1.10;0.70;;;24.30;56.50;;;;;;4990921;28;20034;-65
2023/07/31 08:36:49;;;;;;;1.00;0.60;;;24.40;56.60;;;;;;4993199;28;20038;-64
2023/07/31 08:39:15;;;;;;;1.63;1.00;;;24.40;56.50;;;;;;4981517;28;20071;-68
2023/07/31 08:41:41;;;;;;;1.55;0.80;;;24.50;56.50;;;;;;4990323;28;20089;-64
2023/07/31 08:44:11;;;;;;;1.20;0.82;;;24.60;56.40;;;;;;4992365;28;20038;-63
2023/07/31 08:46:38;;;;;;;3.22;0.70;;;24.70;56.20;;;;;;4990203;28;20068;-64
2023/07/31 08:49:08;;;;;;;1.23;0.80;;;24.80;56.00;;;;;;4988415;28;20049;-65
2023/07/31 08:51:35;;;;;;;1.25;0.80;;;24.90;55.80;;;;;;4988243;28;20030;-66
2023/07/31 08:54:01;;;;;;;0.55;0.55;;;25.00;55.60;;;;;;4988365;28;20030;-66
2023/07/31 08:56:28;;;;;;;0.60;0.60;;;25.00;55.40;;;;;;4988177;28;20084;-66
2023/07/31 08:58:54;;;;;;;0.80;0.63;;;25.10;55.30;;;;;;4991181;28;20318;-64
2023/07/31 09:01:21;;;;;;;0.73;0.50;;;25.10;55.20;;;;;;4988216;28;20048;-65
2023/07/31 09:03:49;;;;;;;0.85;0.70;;;25.10;55.20;;;;;;4988063;28;20422;-65
2023/07/31 09:06:18;;;;;;;0.85;0.70;;;25.10;55.10;;;;;;4982715;28;20149;-64
2023/07/31 09:08:44;;;;;;;0.68;0.60;;;25.20;55.20;;;;;;4985938;28;20045;-65
2023/07/31 09:11:10;;;;;;;0.60;0.50;;;25.20;55.20;;;;;;4987826;28;20047;-64
2023/07/31 09:13:38;;;;;;;1.55;0.70;;;25.20;55.20;;;;;;4988790;28;20027;-64
2023/07/31 09:16:04;;;;;;;0.60;0.50;;;25.10;55.20;;;;;;4988846;28;20152;-66
2023/07/31 09:18:30;;;;;;;0.75;0.55;;;25.10;55.20;;;;;;4986827;28;20094;-64
2023/07/31 09:21:06;;;;;;;0.75;0.63;;;25.10;55.20;;;;;;4988213;28;20027;-66
2023/07/31 09:23:47;;;;;;;0.60;0.50;;;25.10;55.20;;;;;;4987648;28;20143;-66
2023/07/31 09:26:33;;;;;;;0.90;0.50;;;25.10;55.30;;;;;;4989635;28;20053;-64
2023/07/31 09:29:00;;;;;;;0.95;0.60;;;25.00;55.30;;;;;;4988536;28;20130;-64
2023/07/31 09:31:43;;;;;;;1.10;0.70;;;25.00;55.40;;;;;;5001726;28;20100;-64
2023/07/31 09:34:11;;;;;;;0.80;0.60;;;25.00;55.50;;;;;;4987249;28;20061;-66
2023/07/31 09:36:49;;;;;;;0.88;0.60;;;25.00;55.50;;;;;;4986354;28;20488;-66
2023/07/31 09:39:16;;;;;;;0.65;0.52;;;25.00;55.50;;;;;;4987400;28;20385;-65
2023/07/31 09:41:47;;;;;;;0.80;0.70;;;24.90;56.20;;;;;;4987860;28;20022;-66
2023/07/31 09:44:13;;;;;;;1.00;0.60;;;24.90;55.60;;;;;;4988405;28;20430;-66
2023/07/31 09:46:39;;;;;;;0.55;0.50;;;24.90;55.60;;;;;;4986177;28;20130;-66
2023/07/31 09:49:09;;;;;;;0.90;0.63;;;24.90;55.70;;;;;;4985684;28;20104;-65
2023/07/31 09:51:38;;;;;;;0.88;0.68;;;24.90;55.70;;;;;;4987412;28;21722;-64
2023/07/31 09:54:12;;;;;;;2.17;0.70;;;24.90;55.80;;;;;;4988148;28;20031;-65
2023/07/31 09:56:45;;;;;;;1.02;0.65;;;24.90;55.90;;;;;;4997977;28;20033;-66
2023/07/31 09:59:14;;;;;;;1.65;1.00;;;24.90;55.90;;;;;;4989684;28;20062;-64
2023/07/31 10:01:41;;;;;;;1.42;0.80;;;24.90;56.00;;;;;;4987960;28;20042;-65
2023/07/31 10:04:11;;;;;;;0.90;0.70;;;24.80;56.00;;;;;;4986433;28;20418;-64
2023/07/31 10:06:38;;;;;;;1.05;0.55;;;24.90;56.10;;;;;;4987245;28;21885;-65
2023/07/31 10:09:09;;;;;;;2.05;0.80;;;24.80;56.10;;;;;;4987414;28;20129;-64
2023/07/31 10:11:41;;;;;;;0.75;0.57;;;24.80;56.10;;;;;;4987020;28;20097;-64
2023/07/31 10:14:09;;;;;;;1.60;0.98;;;24.80;56.20;;;;;;4988270;28;20301;-64
2023/07/31 10:16:37;;;;;;;1.20;0.70;;;24.80;56.30;;;;;;4988289;28;20030;-67
2023/07/31 10:19:04;;;;;;;0.80;0.80;;;24.80;56.40;;;;;;4987066;28;20045;-66
2023/07/31 10:21:34;;;;;;;1.20;0.88;;;24.80;56.40;;;;;;4988720;28;20192;-66
2023/07/31 10:24:04;;;;;;;1.50;0.80;;;24.70;56.40;;;;;;4989167;28;20136;-67
2023/07/31 10:26:32;;;;;;;1.30;0.93;;;24.80;56.50;;;;;;4986368;28;20034;-65
2023/07/31 10:28:59;;;;;;;1.55;0.80;;;24.80;56.60;;;;;;4987606;28;20030;-65
2023/07/31 10:31:26;;;;;;;1.58;1.10;;;24.80;56.60;;;;;;4987166;28;20057;-67
2023/07/31 10:33:54;;;;;;;1.48;0.98;;;24.70;56.60;;;;;;4985042;28;20037;-64
2023/07/31 10:36:20;;;;;;;1.23;1.00;;;24.70;56.70;;;;;;4986700;28;20041;-66
2023/07/31 10:38:49;;;;;;;1.63;0.80;;;24.70;56.70;;;;;;4987878;28;20026;-64
2023/07/31 10:41:15;;;;;;;1.90;1.40;;;24.80;56.80;;;;;;4985938;28;20026;-66
2023/07/31 10:43:41;;;;;;;2.13;1.20;;;24.70;56.70;;;;;;4987714;28;20030;-66
2023/07/31 10:46:11;;;;;;;1.80;1.02;;;24.80;56.80;;;;;;4988830;28;20077;-63
2023/07/31 10:48:40;;;;;;;1.55;1.10;;;24.70;56.70;;;;;;4991142;28;20136;-64
2023/07/31 10:51:12;;;;;;;1.60;1.10;;;24.70;56.80;;;;;;4990781;28;20029;-65
2023/07/31 10:53:43;;;;;;;1.88;1.20;;;24.70;56.80;;;;;;4988596;28;20034;-65
2023/07/31 10:56:13;;;;;;;2.67;1.38;;;24.70;56.80;;;;;;4989931;28;20022;-64
2023/07/31 10:58:39;;;;;;;1.95;1.08;;;24.70;56.80;;;;;;4988643;28;20064;-64
2023/07/31 11:01:06;;;;;;;2.47;1.30;;;24.70;56.90;;;;;;4987265;28;20041;-66
2023/07/31 11:03:46;;;;;;;2.00;1.23;;;24.70;56.90;;;;;;4985259;28;20044;-65
2023/07/31 11:06:13;;;;;;;1.60;1.20;;;24.70;56.90;;;;;;4986253;28;20205;-65
2023/07/31 11:08:45;;;;;;;1.52;1.13;;;24.70;57.00;;;;;;4983076;28;20088;-66
2023/07/31 11:11:18;;;;;;;1.75;1.20;;;24.70;57.00;;;;;;4987300;28;20062;-66
2023/07/31 11:13:46;;;;;;;2.22;1.40;;;24.70;57.10;;;;;;4988844;28;20064;-66
2023/07/31 11:16:13;;;;;;;1.73;1.10;;;24.70;57.10;;;;;;4993236;28;20050;-67
2023/07/31 11:18:45;;;;;;;1.27;0.90;;;24.70;57.10;;;;;;4991151;28;20035;-66
2023/07/31 11:21:15;;;;;;;1.45;1.08;;;24.70;57.20;;;;;;4995514;28;20460;-66
2023/07/31 11:23:42;;;;;;;1.30;1.00;;;24.70;57.20;;;;;;4990904;28;20396;-66
2023/07/31 11:26:08;;;;;;;1.85;1.30;;;24.70;57.20;;;;;;4993044;28;20109;-66
2023/07/31 11:28:35;;;;;;;2.22;1.25;;;24.70;57.20;;;;;;4991431;28;20096;-64
2023/07/31 11:31:02;;;;;;;1.02;0.93;;;24.70;57.30;;;;;;4988375;28;20087;-64
2023/07/31 11:33:28;;;;;;;1.85;1.05;;;24.70;57.30;;;;;;4983467;28;20118;-64
2023/07/31 11:35:54;;;;;;;1.90;1.00;;;24.70;57.30;;;;;;4987527;28;20074;-59
2023/07/31 11:38:24;;;;;;;1.52;0.95;;;24.70;57.40;;;;;;4986724;28;21763;-63
2023/07/31 11:40:50;;;;;;;1.63;1.10;;;24.80;57.50;;;;;;4986654;28;20445;-64
2023/07/31 11:43:18;;;;;;;1.45;1.10;;;24.70;57.50;;;;;;4986907;28;20022;-62
2023/07/31 11:46:03;;;;;;;2.78;1.23;;;24.70;57.50;;;;;;4989971;28;20030;-63
2023/07/31 11:48:33;;;;;;;1.50;1.10;;;24.70;57.50;;;;;;4999103;28;20367;-63
2023/07/31 11:51:01;;;;;;;1.88;1.23;;;24.70;57.60;;;;;;4995717;28;20042;-64
2023/07/31 11:53:36;;;;;;;1.63;1.40;;;24.70;57.70;;;;;;5011106;28;20037;-63
2023/07/31 11:56:06;;;;;;;1.63;1.13;;;24.70;57.70;;;;;;5011959;28;20432;-62
2023/07/31 11:58:34;;;;;;;1.95;1.10;;;24.70;57.70;;;;;;5011855;28;20038;-62
2023/07/31 12:01:01;;;;;;;1.42;1.10;;;24.70;57.70;;;;;;4993240;28;20030;-62
2023/07/31 12:03:27;;;;;;;1.10;0.90;;;24.70;57.70;;;;;;4993324;28;20046;-63
2023/07/31 12:05:54;;;;;;;2.05;1.15;;;24.80;57.80;;;;;;5009225;28;20461;-63
2023/07/31 12:08:22;;;;;;;2.38;1.15;;;24.80;57.80;;;;;;4986127;28;20117;-61
2023/07/31 12:10:51;;;;;;;1.30;1.10;;;24.70;57.80;;;;;;4987574;28;20434;-64
2023/07/31 12:13:26;;;;;;;1.73;1.23;;;24.70;57.80;;;;;;4988544;28;20046;-62
2023/07/31 12:16:00;;;;;;;2.28;1.05;;;24.70;57.80;;;;;;4985634;28;20106;-62
2023/07/31 12:18:28;;;;;;;3.22;1.00;;;24.70;57.80;;;;;;4981610;28;20042;-62
2023/07/31 12:20:56;;;;;;;1.25;1.00;;;24.70;57.80;;;;;;4986788;28;20030;-62
2023/07/31 12:23:29;;;;;;;1.58;1.30;;;24.70;57.80;;;;;;4988819;28;20109;-63
2023/07/31 12:26:06;;;;;;;1.85;1.13;;;24.70;57.80;;;;;;4988837;28;20030;-62
2023/07/31 12:28:49;;;;;;;1.63;1.10;;;24.80;57.80;;;;;;4988374;28;20153;-62
2023/07/31 12:31:20;;;;;;;2.47;1.00;;;24.80;57.80;;;;;;4984935;28;20116;-62
2023/07/31 12:33:49;;;;;;;1.52;0.95;;;24.70;57.80;;;;;;4981848;28;20295;-66
2023/07/31 12:36:26;;;;;;;1.75;0.90;;;24.70;57.80;;;;;;4982162;28;20038;-64
2023/07/31 12:38:52;;;;;;;1.75;1.10;;;24.80;57.90;;;;;;4983438;28;20307;-65
2023/07/31 12:41:18;;;;;;;1.90;1.25;;;24.80;58.00;;;;;;4986462;28;20097;-63
2023/07/31 12:43:45;;;;;;;3.17;1.25;;;24.80;58.00;;;;;;4986376;28;20027;-63
2023/07/31 12:46:12;;;;;;;1.60;1.20;;;24.90;57.90;;;;;;4984122;28;20026;-63
2023/07/31 12:48:39;;;;;;;2.50;1.30;;;24.90;57.80;;;;;;4980959;28;20125;-64